MiSS Krissy — WDC8127 — position and weather

sailwx.info

Track history (hours):
 
Tides and Currents Weather Stations Pressure Air Temp Water Temp Dewpoint Dewpoint Depression Visibility Wind Speed Wind Dir Waves Ship Positions

MiSS Krissy

Owner: Misener Marine Construction Inc., Tampa, FL. More information available from US FCC via Universal Licensing System and Coast Guard Vessel Documentation Center.

Last reported at 2018-Jan-19 15:31 UTC. Time now 2018-Jan-19 15:58 UTC.
Position N 27°54' W 082°25'.

Length 14 m.

Type: Tug. MMSI: 367082050.

Date/timePositionNaut miles runAvg speedWind from/ knotsBaromVisibWave heightAir tempDewpointWater temp
2018-Jan-19 15:31N 27°54' W 082°25'1 2.0
2018-Jan-19 15:01N 27°54' W 082°26'0 0.1
2018-Jan-19 14:30N 27°55' W 082°26'0 0.1
2018-Jan-19 14:00N 27°55' W 082°26'0 0.1
2018-Jan-19 13:31N 27°55' W 082°26'0 0.9
2018-Jan-19 13:00N 27°54' W 082°26'1 2.8
2018-Jan-19 12:30N 27°53' W 082°26'3 5.9
2018-Jan-19 12:01N 27°50' W 082°26'2 4.6
2018-Jan-19 11:30N 27°48' W 082°24'0 0.0
2018-Jan-18 23:06N 27°48' W 082°24'1 5.9
2018-Jan-18 22:59N 27°48' W 082°25'3 5.5
2018-Jan-18 22:30N 27°51' W 082°26'1 1.6
2018-Jan-18 21:59N 27°51' W 082°27'3 5.4
2018-Jan-18 21:30N 27°54' W 082°26'1 1.8
2018-Jan-18 21:00N 27°55' W 082°26'0 0.7
2018-Jan-18 20:30N 27°55' W 082°26'0 0.1
2018-Jan-18 20:00N 27°55' W 082°26'0 0.1
2018-Jan-18 19:30N 27°55' W 082°26'0 0.0
2018-Jan-18 19:00N 27°55' W 082°26'0 0.1
2018-Jan-18 18:30N 27°55' W 082°26'0 0.1
2018-Jan-18 18:00N 27°55' W 082°26'0 0.0
2018-Jan-18 17:30N 27°55' W 082°26'0 0.0
2018-Jan-18 17:00N 27°55' W 082°26'0 0.6
2018-Jan-18 16:30N 27°55' W 082°26'0 0.3
2018-Jan-18 16:01N 27°55' W 082°26'0 0.0
2018-Jan-18 15:30N 27°55' W 082°26'0 0.0
2018-Jan-18 15:00N 27°55' W 082°26'0 0.0
2018-Jan-18 14:30N 27°55' W 082°26'0 0.0
2018-Jan-18 14:00N 27°55' W 082°26'0 0.2
2018-Jan-18 13:30N 27°55' W 082°26'0 0.7
2018-Jan-18 13:00N 27°54' W 082°26'3 6.4
2018-Jan-18 12:30N 27°51' W 082°27'3 5.6
2018-Jan-18 12:00N 27°49' W 082°25'  
2018-Jan-12 15:00N 27°49' W 082°28'0 0.2
2018-Jan-12 14:30N 27°49' W 082°27'0 0.1
2018-Jan-12 14:00N 27°49' W 082°27'3 1.4
2018-Jan-12 11:48N 27°48' W 082°24'0 0.0
2018-Jan-11 22:31N 27°48' W 082°24'0 0.0
2018-Jan-11 22:30N 27°48' W 082°24'2 4.1
2018-Jan-11 22:00N 27°49' W 082°26'1 2.1
2018-Jan-11 21:31N 27°49' W 082°27'0 0.0
2018-Jan-11 21:01N 27°49' W 082°27'0 0.0
2018-Jan-11 20:30N 27°49' W 082°27'0 0.0
2018-Jan-11 20:00N 27°49' W 082°27'0 0.0
2018-Jan-11 19:30N 27°49' W 082°27'0 0.0
2018-Jan-11 19:01N 27°49' W 082°27'0 0.7
2018-Jan-11 18:29N 27°49' W 082°27'0 0.0
2018-Jan-11 17:59N 27°49' W 082°27'0 0.0
2018-Jan-11 17:28N 27°49' W 082°27'2 3.8
2018-Jan-11 16:59N 27°51' W 082°27'3 6.1
2018-Jan-11 16:31N 27°54' W 082°26'1 2.7
2018-Jan-11 16:01N 27°54' W 082°25'3 5.8
2018-Jan-11 15:30N 27°52' W 082°27'1 2.0
2018-Jan-11 14:59N 27°51' W 082°26'0 0.0
2018-Jan-11 14:31N 27°51' W 082°26'0 0.0
2018-Jan-11 13:59N 27°51' W 082°26'0 0.0
2018-Jan-11 13:30N 27°51' W 082°26'1 2.3
2018-Jan-11 13:00N 27°50' W 082°26'1 0.7
2018-Jan-11 11:10N 27°48' W 082°25'0 0.1
2018-Jan-11 11:00N 27°48' W 082°25'1 0.1
2018-Jan-10 23:12N 27°48' W 082°24'2 5.6
2018-Jan-10 22:45N 27°50' W 082°26'0 1.5
2018-Jan-10 22:30N 27°51' W 082°26'0 0.0
2018-Jan-10 22:00N 27°51' W 082°26'2 3.2
2018-Jan-10 21:30N 27°52' W 082°27'2 4.6
2018-Jan-10 21:00N 27°54' W 082°26'0 0.0
2018-Jan-10 20:30N 27°54' W 082°26'0 0.0
2018-Jan-10 20:00N 27°54' W 082°26'0 0.0
2018-Jan-10 19:31N 27°54' W 082°26'0 0.0
2018-Jan-10 19:00N 27°54' W 082°26'0 0.0
2018-Jan-10 18:31N 27°54' W 082°26'0 0.0
2018-Jan-10 18:00N 27°54' W 082°26'0 0.0
2018-Jan-10 17:24N 27°54' W 082°26'0 0.0
2018-Jan-10 17:01N 27°54' W 082°26'0 0.0
2018-Jan-10 16:30N 27°55' W 082°26'0 0.1
2018-Jan-10 16:00N 27°55' W 082°26'0 0.0
2018-Jan-10 15:30N 27°55' W 082°26'0 0.0
2018-Jan-10 15:00N 27°55' W 082°26'0 0.0
2018-Jan-10 14:30N 27°55' W 082°26'0 0.1
2018-Jan-10 13:59N 27°55' W 082°26'1 2.4
2018-Jan-10 13:30N 27°53' W 082°26'3 5.4
2018-Jan-10 13:00N 27°51' W 082°26'3 5.3
2018-Jan-10 12:30N 27°48' W 082°24'0 0.0
2018-Jan-09 17:41N 27°48' W 082°24'1 4.9
2018-Jan-09 17:30N 27°48' W 082°25'3 5.2
2018-Jan-09 17:00N 27°51' W 082°26'3 5.6
2018-Jan-09 16:30N 27°54' W 082°26'1 2.0
2018-Jan-09 16:00N 27°55' W 082°26'  
Track history (hours):
 
Tides and Currents Weather Stations Pressure Air Temp Water Temp Dewpoint Dewpoint Depression Visibility Wind Speed Wind Dir Waves Ship Positions

MiSS Krissy

Owner: Misener Marine Construction Inc., Tampa, FL. More information available from US FCC via Universal Licensing System and Coast Guard Vessel Documentation Center.

Last reported at 2018-Jan-19 15:31 UTC. Time now 2018-Jan-19 15:58 UTC.
Position N 27°54' W 082°25'.

Length 14 m.

Type: Tug. MMSI: 367082050.

Date/timePositionNaut miles runAvg speedWind from/ knotsBaromVisibWave heightAir tempDewpointWater temp
2018-Jan-19 15:31N 27°54' W 082°25'1 2.0
2018-Jan-19 15:01N 27°54' W 082°26'0 0.1
2018-Jan-19 14:30N 27°55' W 082°26'0 0.1
2018-Jan-19 14:00N 27°55' W 082°26'0 0.1
2018-Jan-19 13:31N 27°55' W 082°26'0 0.9
2018-Jan-19 13:00N 27°54' W 082°26'1 2.8
2018-Jan-19 12:30N 27°53' W 082°26'3 5.9
2018-Jan-19 12:01N 27°50' W 082°26'2 4.6
2018-Jan-19 11:30N 27°48' W 082°24'0 0.0
2018-Jan-18 23:06N 27°48' W 082°24'1 5.9
2018-Jan-18 22:59N 27°48' W 082°25'3 5.5
2018-Jan-18 22:30N 27°51' W 082°26'1 1.6
2018-Jan-18 21:59N 27°51' W 082°27'3 5.4
2018-Jan-18 21:30N 27°54' W 082°26'1 1.8
2018-Jan-18 21:00N 27°55' W 082°26'0 0.7
2018-Jan-18 20:30N 27°55' W 082°26'0 0.1
2018-Jan-18 20:00N 27°55' W 082°26'0 0.1
2018-Jan-18 19:30N 27°55' W 082°26'0 0.0
2018-Jan-18 19:00N 27°55' W 082°26'0 0.1
2018-Jan-18 18:30N 27°55' W 082°26'0 0.1
2018-Jan-18 18:00N 27°55' W 082°26'0 0.0
2018-Jan-18 17:30N 27°55' W 082°26'0 0.0
2018-Jan-18 17:00N 27°55' W 082°26'0 0.6
2018-Jan-18 16:30N 27°55' W 082°26'0 0.3
2018-Jan-18 16:01N 27°55' W 082°26'0 0.0
2018-Jan-18 15:30N 27°55' W 082°26'0 0.0
2018-Jan-18 15:00N 27°55' W 082°26'0 0.0
2018-Jan-18 14:30N 27°55' W 082°26'0 0.0
2018-Jan-18 14:00N 27°55' W 082°26'0 0.2
2018-Jan-18 13:30N 27°55' W 082°26'0 0.7
2018-Jan-18 13:00N 27°54' W 082°26'3 6.4
2018-Jan-18 12:30N 27°51' W 082°27'3 5.6
2018-Jan-18 12:00N 27°49' W 082°25'  
2018-Jan-12 15:00N 27°49' W 082°28'0 0.2
2018-Jan-12 14:30N 27°49' W 082°27'0 0.1
2018-Jan-12 14:00N 27°49' W 082°27'3 1.4
2018-Jan-12 11:48N 27°48' W 082°24'0 0.0
2018-Jan-11 22:31N 27°48' W 082°24'0 0.0
2018-Jan-11 22:30N 27°48' W 082°24'2 4.1
2018-Jan-11 22:00N 27°49' W 082°26'1 2.1
2018-Jan-11 21:31N 27°49' W 082°27'0 0.0
2018-Jan-11 21:01N 27°49' W 082°27'0 0.0
2018-Jan-11 20:30N 27°49' W 082°27'0 0.0
2018-Jan-11 20:00N 27°49' W 082°27'0 0.0
2018-Jan-11 19:30N 27°49' W 082°27'0 0.0
2018-Jan-11 19:01N 27°49' W 082°27'0 0.7
2018-Jan-11 18:29N 27°49' W 082°27'0 0.0
2018-Jan-11 17:59N 27°49' W 082°27'0 0.0
2018-Jan-11 17:28N 27°49' W 082°27'2 3.8
2018-Jan-11 16:59N 27°51' W 082°27'3 6.1
2018-Jan-11 16:31N 27°54' W 082°26'1 2.7
2018-Jan-11 16:01N 27°54' W 082°25'3 5.8
2018-Jan-11 15:30N 27°52' W 082°27'1 2.0
2018-Jan-11 14:59N 27°51' W 082°26'0 0.0
2018-Jan-11 14:31N 27°51' W 082°26'0 0.0
2018-Jan-11 13:59N 27°51' W 082°26'0 0.0
2018-Jan-11 13:30N 27°51' W 082°26'1 2.3
2018-Jan-11 13:00N 27°50' W 082°26'1 0.7
2018-Jan-11 11:10N 27°48' W 082°25'0 0.1
2018-Jan-11 11:00N 27°48' W 082°25'1 0.1
2018-Jan-10 23:12N 27°48' W 082°24'2 5.6
2018-Jan-10 22:45N 27°50' W 082°26'0 1.5
2018-Jan-10 22:30N 27°51' W 082°26'0 0.0
2018-Jan-10 22:00N 27°51' W 082°26'2 3.2
2018-Jan-10 21:30N 27°52' W 082°27'2 4.6
2018-Jan-10 21:00N 27°54' W 082°26'0 0.0
2018-Jan-10 20:30N 27°54' W 082°26'0 0.0
2018-Jan-10 20:00N 27°54' W 082°26'0 0.0
2018-Jan-10 19:31N 27°54' W 082°26'0 0.0
2018-Jan-10 19:00N 27°54' W 082°26'0 0.0
2018-Jan-10 18:31N 27°54' W 082°26'0 0.0
2018-Jan-10 18:00N 27°54' W 082°26'0 0.0
2018-Jan-10 17:24N 27°54' W 082°26'0 0.0
2018-Jan-10 17:01N 27°54' W 082°26'0 0.0
2018-Jan-10 16:30N 27°55' W 082°26'0 0.1
2018-Jan-10 16:00N 27°55' W 082°26'0 0.0
2018-Jan-10 15:30N 27°55' W 082°26'0 0.0
2018-Jan-10 15:00N 27°55' W 082°26'0 0.0
2018-Jan-10 14:30N 27°55' W 082°26'0 0.1
2018-Jan-10 13:59N 27°55' W 082°26'1 2.4
2018-Jan-10 13:30N 27°53' W 082°26'3 5.4
2018-Jan-10 13:00N 27°51' W 082°26'3 5.3
2018-Jan-10 12:30N 27°48' W 082°24'0 0.0
2018-Jan-09 17:41N 27°48' W 082°24'1 4.9
2018-Jan-09 17:30N 27°48' W 082°25'3 5.2
2018-Jan-09 17:00N 27°51' W 082°26'3 5.6
2018-Jan-09 16:30N 27°54' W 082°26'1 2.0
2018-Jan-09 16:00N 27°55' W 082°26'  

Dump ship's entire track history